Airfield :
LOGIN :

Register | Disclaimer

   EN    FR    IT 

 










Legend :    VFR   Marginal VFR   IFR   Intensive IFR   Very Intensive IFR
Visi :
Ceiling :
>= 8 km
>= 3000ft
5 to 8 km
1000 to 3000 ft
1500m to 5 km
500 to 1000 ft
800 to 1500m
200 to 500 ft
< 800m
< 200 ft
Symbols :   Thunderstorms  Fog  Heavy snow  Heavy precipitations  Wind > 20 kt
SIGMETs :     Misc.  Thunderstorms  Icing  Turbulence  Mountain Waves  Volcanic Ashes






- Airport Elevation : 362 ft
- IATA code : WAW


EPWA - Warsaw Okecie

CURRENT METAR :
  • 040500Z 00000KT CAVOK 20/17 Q1017 NOSIG

EXPIRED METARs :
  • 040430Z VRB01KT CAVOK 18/17 Q1017 NOSIG
  • 040330Z 15002KT 9999 MIFG NSC 16/16 Q1017 NOSIG
  • 040300Z 13003KT 9999 MIFG NSC 16/15 Q1017 NOSIG
  • 040230Z 14002KT 6000 0300W BCFG NSC 16/15 Q1017 NOSIG

TAF TAF EPWA
Valid from the 04 at 03:00 until the 05 at 03:00 UTC


040230Z 0403/0503 VRB02KT CAVOK
BECMG 0406/0408 26010KT
TEMPO 0412/0421 SCT040CB
PROB30
TEMPO 0415/0420 -TSRA



MET'MAP, your aeronautical weather chart ! - Copyright ORBIFLY December 2007 - Disclaimer

ORBIFLY MET'MAP TEAM :

Programming & Development : Alexandra Zaïnal
Original concept : Baudouin d'Aumeries
Technical & hardware support : Manuel Goepfert
Assistance : Marc-Olivier Méhu




SOURCES & CREDITS :

   NOAA